Time;durP1;ratioP1;P1;durP2;ratioP2;P2;SDS_P1;SDS_P2;PMS_P1;PMS_P2;Temp;Humidity;BMP_temperature;BMP_pressure;BME280_temperature;BME280_humidity;BME280_pressure;Samples;Min_cycle;Max_cycle;Signal;HPM_P1;HPM_P2
2021/10/13 00:01:09;;;;;;;5.63;2.70;;;;;;;;;;5094343;28;20221;-77
2021/10/13 00:03:36;;;;;;;7.20;3.80;;;;;;;;;;5093857;28;20238;-77
2021/10/13 00:06:04;;;;;;;5.80;3.45;;;;;;;;;;5093913;28;20194;-76
2021/10/13 00:08:31;;;;;;;4.75;3.92;;;;;;;;;;5093873;28;20207;-76
2021/10/13 00:10:59;;;;;;;4.57;3.40;;;;;;;;;;5093915;28;20647;-74
2021/10/13 00:13:26;;;;;;;8.90;3.70;;;;;;;;;;5093852;28;20196;-74
2021/10/13 00:15:54;;;;;;;4.82;3.30;;;;;;;;;;5094089;28;20221;-74
2021/10/13 00:18:21;;;;;;;4.43;3.25;;;;;;;;;;5093957;28;20226;-73
2021/10/13 00:20:48;;;;;;;8.15;3.85;;;;;;;;;;5094188;28;20191;-74
2021/10/13 00:23:15;;;;;;;6.45;3.10;;;;;;;;;;5093959;28;20202;-74
2021/10/13 00:25:42;;;;;;;5.80;2.85;;;;;;;;;;5093921;28;20202;-74
2021/10/13 00:28:11;;;;;;;13.10;3.90;;;;;;;;;;5094079;28;20200;-74
2021/10/13 00:30:38;;;;;;;9.25;3.95;;;;;;;;;;5093844;28;20282;-74
2021/10/13 00:33:05;;;;;;;5.03;3.47;;;;;;;;;;5093973;28;20202;-74
2021/10/13 00:35:33;;;;;;;5.85;3.38;;;;;;;;;;5094184;28;20198;-74
2021/10/13 00:38:00;;;;;;;7.38;3.30;;;;;;;;;;5093472;28;20196;-74
2021/10/13 00:40:29;;;;;;;5.18;3.13;;;;;;;;;;5094190;28;20603;-75
2021/10/13 00:42:56;;;;;;;6.78;4.70;;;;;;;;;;5094068;28;20196;-74
2021/10/13 00:45:25;;;;;;;10.23;3.35;;;;;;;;;;5093688;28;20203;-74
2021/10/13 00:47:52;;;;;;;11.23;3.30;;;;;;;;;;5093463;28;20198;-74
2021/10/13 00:50:19;;;;;;;5.88;3.28;;;;;;;;;;5093249;28;20192;-75
2021/10/13 00:52:46;;;;;;;3.35;2.80;;;;;;;;;;5093596;28;20192;-75
2021/10/13 00:55:19;;;;;;;5.43;3.20;;;;;;;;;;5093585;28;20197;-75
2021/10/13 00:57:47;;;;;;;3.95;2.80;;;;;;;;;;5093299;28;20192;-74
2021/10/13 01:00:14;;;;;;;10.23;3.97;;;;;;;;;;5093501;28;20227;-74
2021/10/13 01:02:48;;;;;;;6.88;3.15;;;;;;;;;;5093252;28;20471;-74
2021/10/13 01:05:23;;;;;;;15.32;4.45;;;;;;;;;;5093166;28;20194;-75
2021/10/13 01:07:53;;;;;;;5.25;2.80;;;;;;;;;;5094241;28;20195;-75
2021/10/13 01:10:23;;;;;;;5.55;2.60;;;;;;;;;;5093201;28;20196;-75
2021/10/13 01:12:56;;;;;;;6.65;3.10;;;;;;;;;;5093098;28;20197;-74
2021/10/13 01:15:27;;;;;;;6.32;3.20;;;;;;;;;;5093621;28;20195;-74
2021/10/13 01:17:58;;;;;;;6.78;3.30;;;;;;;;;;5097978;28;20542;-75
2021/10/13 01:20:30;;;;;;;3.22;2.88;;;;;;;;;;5097808;28;20305;-74
2021/10/13 01:23:05;;;;;;;4.53;2.67;;;;;;;;;;5097957;28;20189;-75
2021/10/13 01:25:38;;;;;;;8.82;3.25;;;;;;;;;;5097624;28;20279;-75
2021/10/13 01:28:09;;;;;;;6.50;3.40;;;;;;;;;;5097324;28;20242;-75
2021/10/13 01:30:38;;;;;;;6.68;3.70;;;;;;;;;;5097681;28;20189;-75
2021/10/13 01:33:08;;;;;;;6.88;2.72;;;;;;;;;;5097622;28;20283;-75
2021/10/13 01:35:40;;;;;;;3.42;3.08;;;;;;;;;;5096825;28;20208;-75
2021/10/13 01:38:09;;;;;;;6.17;2.97;;;;;;;;;;5097335;28;20220;-75
2021/10/13 01:40:37;;;;;;;2.90;2.60;;;;;;;;;;5096945;28;20929;-75
2021/10/13 01:43:05;;;;;;;7.90;3.40;;;;;;;;;;5096730;28;20455;-75
2021/10/13 01:45:34;;;;;;;8.15;3.88;;;;;;;;;;5096584;28;20442;-75
2021/10/13 01:48:03;;;;;;;3.95;3.05;;;;;;;;;;5096852;28;20203;-75
2021/10/13 01:50:30;;;;;;;9.35;2.80;;;;;;;;;;5097378;28;20200;-75
2021/10/13 01:52:58;;;;;;;3.93;3.17;;;;;;;;;;5096767;28;20201;-75
2021/10/13 01:55:27;;;;;;;4.80;2.95;;;;;;;;;;5096934;28;20449;-76
2021/10/13 01:57:56;;;;;;;8.00;4.68;;;;;;;;;;5096386;28;20208;-76
2021/10/13 02:00:24;;;;;;;8.30;2.95;;;;;;;;;;5096228;28;20688;-76
2021/10/13 02:02:54;;;;;;;4.95;4.07;;;;;;;;;;5096564;28;20228;-75
2021/10/13 02:05:21;;;;;;;9.98;3.63;;;;;;;;;;5096797;28;20190;-75
2021/10/13 02:07:49;;;;;;;7.25;4.13;;;;;;;;;;5096802;28;20203;-75
2021/10/13 02:10:17;;;;;;;4.28;3.03;;;;;;;;;;5096121;28;20288;-75
2021/10/13 02:12:46;;;;;;;4.55;2.78;;;;;;;;;;5096014;28;20197;-75
2021/10/13 02:15:15;;;;;;;4.97;3.97;;;;;;;;;;5096031;28;20201;-75
2021/10/13 02:17:44;;;;;;;7.05;2.90;;;;;;;;;;5096265;28;20189;-75
2021/10/13 02:20:13;;;;;;;6.38;3.30;;;;;;;;;;5096183;28;20217;-75
2021/10/13 02:22:41;;;;;;;2.80;2.55;;;;;;;;;;5096430;28;20196;-75
2021/10/13 02:25:09;;;;;;;5.03;2.75;;;;;;;;;;5096100;28;20654;-75
2021/10/13 02:27:41;;;;;;;5.47;2.80;;;;;;;;;;5095824;28;20196;-75
2021/10/13 02:30:09;;;;;;;5.47;2.95;;;;;;;;;;5096751;28;20196;-75
2021/10/13 02:32:36;;;;;;;10.45;3.60;;;;;;;;;;5096063;28;20368;-75
2021/10/13 02:35:05;;;;;;;5.30;3.28;;;;;;;;;;5095674;28;20195;-75
2021/10/13 02:37:33;;;;;;;9.65;3.45;;;;;;;;;;5096099;28;20287;-76
2021/10/13 02:40:00;;;;;;;3.95;3.00;;;;;;;;;;5095549;28;20216;-75
2021/10/13 02:42:28;;;;;;;6.63;3.22;;;;;;;;;;5095534;28;20659;-76
2021/10/13 02:44:55;;;;;;;7.82;2.70;;;;;;;;;;5095873;28;20192;-75
2021/10/13 02:47:25;;;;;;;5.90;3.22;;;;;;;;;;5096056;28;20673;-76
2021/10/13 02:49:57;;;;;;;11.52;2.88;;;;;;;;;;5095711;28;20199;-75
2021/10/13 02:52:28;;;;;;;6.25;3.25;;;;;;;;;;5096210;28;20185;-75
2021/10/13 02:55:00;;;;;;;3.78;3.20;;;;;;;;;;5096119;28;20185;-76
2021/10/13 02:57:29;;;;;;;8.18;3.72;;;;;;;;;;5095326;28;20647;-75
2021/10/13 02:59:58;;;;;;;18.38;4.00;;;;;;;;;;5095466;28;20224;-75
2021/10/13 03:02:27;;;;;;;6.00;3.10;;;;;;;;;;5095117;28;20656;-75
2021/10/13 03:04:55;;;;;;;11.95;3.97;;;;;;;;;;5095546;28;20661;-76
2021/10/13 03:07:25;;;;;;;4.18;2.85;;;;;;;;;;5095066;28;20198;-76
2021/10/13 03:09:54;;;;;;;8.80;3.40;;;;;;;;;;5095541;28;20196;-74
2021/10/13 03:12:24;;;;;;;4.10;2.85;;;;;;;;;;5095288;28;20201;-74
2021/10/13 03:14:52;;;;;;;6.45;3.22;;;;;;;;;;5095795;28;20193;-74
2021/10/13 03:17:20;;;;;;;4.78;2.95;;;;;;;;;;5095390;28;20283;-75
2021/10/13 03:19:47;;;;;;;4.20;3.05;;;;;;;;;;5095153;28;20224;-74
2021/10/13 03:22:15;;;;;;;4.95;3.60;;;;;;;;;;5095081;28;20196;-74
2021/10/13 03:24:42;;;;;;;14.23;3.53;;;;;;;;;;5094717;28;20227;-74
2021/10/13 03:27:09;;;;;;;6.45;3.25;;;;;;;;;;5094655;28;20196;-74
2021/10/13 03:29:41;;;;;;;6.32;3.80;;;;;;;;;;5094941;28;20199;-74
2021/10/13 03:32:08;;;;;;;5.78;3.35;;;;;;;;;;5095338;28;20235;-74
2021/10/13 03:34:35;;;;;;;6.35;3.83;;;;;;;;;;5095227;28;20196;-74
2021/10/13 03:37:03;;;;;;;8.02;3.47;;;;;;;;;;5095140;28;20286;-74
2021/10/13 03:39:30;;;;;;;4.72;2.67;;;;;;;;;;5093629;28;20230;-75
2021/10/13 03:42:01;;;;;;;11.82;3.58;;;;;;;;;;5094672;28;20385;-75
2021/10/13 03:44:28;;;;;;;4.35;3.17;;;;;;;;;;5094412;28;20211;-74
2021/10/13 03:46:57;;;;;;;6.75;4.65;;;;;;;;;;5095435;28;20524;-75
2021/10/13 03:49:24;;;;;;;6.18;3.05;;;;;;;;;;5094519;28;20223;-75
2021/10/13 03:51:51;;;;;;;6.20;3.70;;;;;;;;;;5094801;28;20193;-75
2021/10/13 03:54:19;;;;;;;4.40;3.08;;;;;;;;;;5094699;28;20438;-75
2021/10/13 03:56:46;;;;;;;11.00;3.22;;;;;;;;;;5094282;28;20201;-75
2021/10/13 03:59:13;;;;;;;4.75;3.13;;;;;;;;;;5093953;28;20199;-76
2021/10/13 04:01:40;;;;;;;8.27;3.25;;;;;;;;;;5094013;28;20197;-75
2021/10/13 04:04:09;;;;;;;6.25;3.00;;;;;;;;;;5094057;28;20275;-75
2021/10/13 04:06:37;;;;;;;4.55;3.05;;;;;;;;;;5094203;28;20288;-75
2021/10/13 04:09:05;;;;;;;7.18;3.40;;;;;;;;;;5094209;28;20201;-76
2021/10/13 04:11:32;;;;;;;5.43;3.10;;;;;;;;;;5094048;28;20204;-75
2021/10/13 04:14:00;;;;;;;5.82;3.20;;;;;;;;;;5093821;28;20537;-78
2021/10/13 04:16:27;;;;;;;4.72;2.72;;;;;;;;;;5094046;28;20194;-80
2021/10/13 04:18:54;;;;;;;5.77;3.00;;;;;;;;;;5094816;28;20197;-79
2021/10/13 04:21:22;;;;;;;8.53;3.20;;;;;;;;;;5093583;28;20482;-76
2021/10/13 04:23:50;;;;;;;11.87;3.80;;;;;;;;;;5093898;28;20806;-79
2021/10/13 04:26:17;;;;;;;5.60;3.35;;;;;;;;;;5093212;28;20519;-80
2021/10/13 04:28:44;;;;;;;4.63;3.42;;;;;;;;;;5092904;28;20193;-80
2021/10/13 04:31:11;;;;;;;10.77;4.22;;;;;;;;;;5092612;28;20228;-80
2021/10/13 04:33:38;;;;;;;5.78;2.95;;;;;;;;;;5093850;28;20203;-79
2021/10/13 04:36:06;;;;;;;5.53;3.00;;;;;;;;;;5092972;28;20626;-79
2021/10/13 04:38:34;;;;;;;9.85;3.63;;;;;;;;;;5093629;28;20458;-79
2021/10/13 04:41:01;;;;;;;6.65;3.15;;;;;;;;;;5092987;28;20217;-78
2021/10/13 04:43:29;;;;;;;5.95;3.45;;;;;;;;;;5093253;28;20200;-78
2021/10/13 04:45:56;;;;;;;12.63;3.40;;;;;;;;;;5093065;28;20193;-81
2021/10/13 04:48:23;;;;;;;10.98;4.22;;;;;;;;;;5092873;28;20197;-78
2021/10/13 04:50:50;;;;;;;7.75;4.38;;;;;;;;;;5092963;28;20197;-79
2021/10/13 04:53:18;;;;;;;7.22;3.58;;;;;;;;;;5093072;28;20206;-78
2021/10/13 04:55:47;;;;;;;5.72;3.00;;;;;;;;;;5092640;28;20221;-78
2021/10/13 04:58:14;;;;;;;4.65;3.20;;;;;;;;;;5092632;28;20202;-79
2021/10/13 05:00:42;;;;;;;7.50;3.78;;;;;;;;;;5092819;28;20212;-79
2021/10/13 05:03:09;;;;;;;3.45;2.60;;;;;;;;;;5092589;28;20683;-84
2021/10/13 05:05:37;;;;;;;7.38;3.40;;;;;;;;;;5093805;28;20280;-84
2021/10/13 05:08:05;;;;;;;8.15;3.65;;;;;;;;;;5093860;28;20270;-82
2021/10/13 05:10:32;;;;;;;6.47;3.97;;;;;;;;;;5093494;28;20204;-82
2021/10/13 05:13:00;;;;;;;5.30;4.72;;;;;;;;;;5093360;28;20288;-81
2021/10/13 05:15:28;;;;;;;7.63;3.42;;;;;;;;;;5092563;28;20203;-82
2021/10/13 05:17:55;;;;;;;10.63;4.32;;;;;;;;;;5092614;28;20194;-77
2021/10/13 05:20:22;;;;;;;5.90;3.63;;;;;;;;;;5092154;28;20216;-76
2021/10/13 05:22:49;;;;;;;17.55;3.60;;;;;;;;;;5092406;28;20447;-77
2021/10/13 05:25:17;;;;;;;15.65;5.38;;;;;;;;;;5092798;28;20232;-76
2021/10/13 05:27:44;;;;;;;6.68;3.40;;;;;;;;;;5093062;28;20280;-72
2021/10/13 05:30:13;;;;;;;6.40;3.75;;;;;;;;;;5093172;28;20207;-81
2021/10/13 05:32:40;;;;;;;5.30;3.60;;;;;;;;;;5093087;28;20203;-83
2021/10/13 05:35:07;;;;;;;10.05;3.80;;;;;;;;;;5093056;28;20196;-82
2021/10/13 05:37:35;;;;;;;10.52;4.00;;;;;;;;;;5092930;28;20218;-82
2021/10/13 05:40:02;;;;;;;13.38;2.70;;;;;;;;;;5092669;28;20226;-82
2021/10/13 05:42:29;;;;;;;7.32;3.28;;;;;;;;;;5093485;28;20623;-80
2021/10/13 05:44:56;;;;;;;11.00;3.60;;;;;;;;;;5093009;28;20196;-81
2021/10/13 05:47:25;;;;;;;5.55;3.80;;;;;;;;;;5092745;28;20201;-81
2021/10/13 05:49:52;;;;;;;4.20;3.40;;;;;;;;;;5092890;28;20656;-80
2021/10/13 05:52:19;;;;;;;7.78;3.65;;;;;;;;;;5092930;28;20288;-80
2021/10/13 05:54:46;;;;;;;7.63;3.85;;;;;;;;;;5092610;28;20196;-80
2021/10/13 05:57:13;;;;;;;8.23;3.20;;;;;;;;;;5092801;28;20287;-80
2021/10/13 05:59:42;;;;;;;7.28;4.20;;;;;;;;;;5092495;28;20204;-80
2021/10/13 06:02:09;;;;;;;5.72;2.85;;;;;;;;;;5094283;28;20208;-80
2021/10/13 06:04:38;;;;;;;6.13;3.42;;;;;;;;;;5096839;28;20310;-80
2021/10/13 06:07:05;;;;;;;6.18;3.17;;;;;;;;;;5096332;28;20199;-80
2021/10/13 06:09:32;;;;;;;6.87;3.63;;;;;;;;;;5096114;28;20655;-80
2021/10/13 06:12:00;;;;;;;8.98;4.35;;;;;;;;;;5096420;28;20948;-81
2021/10/13 06:14:27;;;;;;;6.15;4.45;;;;;;;;;;5095942;28;20203;-80
2021/10/13 06:16:54;;;;;;;6.78;3.55;;;;;;;;;;5096312;28;20196;-81
2021/10/13 06:19:21;;;;;;;9.75;4.00;;;;;;;;;;5096246;28;20189;-80
2021/10/13 06:21:50;;;;;;;4.43;3.90;;;;;;;;;;5096424;28;20227;-81
2021/10/13 06:24:17;;;;;;;7.47;3.97;;;;;;;;;;5096283;28;20288;-79
2021/10/13 06:26:44;;;;;;;7.32;4.00;;;;;;;;;;5096388;28;20196;-81
2021/10/13 06:29:11;;;;;;;7.57;4.50;;;;;;;;;;5096009;28;20202;-81
2021/10/13 06:31:38;;;;;;;5.78;3.80;;;;;;;;;;5096108;28;20207;-80
2021/10/13 06:34:06;;;;;;;4.60;4.13;;;;;;;;;;5095868;28;20762;-81
2021/10/13 06:36:33;;;;;;;8.57;4.35;;;;;;;;;;5095876;28;20273;-80
2021/10/13 06:39:02;;;;;;;9.67;4.97;;;;;;;;;;5095549;28;20203;-80
2021/10/13 06:41:29;;;;;;;9.65;3.90;;;;;;;;;;5095684;28;20829;-81
2021/10/13 06:43:57;;;;;;;5.83;4.20;;;;;;;;;;5095962;28;20616;-78
2021/10/13 06:46:24;;;;;;;8.23;4.53;;;;;;;;;;5096174;28;20533;-80
2021/10/13 06:48:51;;;;;;;8.13;4.13;;;;;;;;;;5096284;28;20643;-80
2021/10/13 06:51:18;;;;;;;9.63;4.95;;;;;;;;;;5095526;28;20674;-80
2021/10/13 06:53:47;;;;;;;10.68;4.70;;;;;;;;;;5095840;28;20284;-80
2021/10/13 06:56:15;;;;;;;11.73;5.05;;;;;;;;;;5095164;28;20659;-80
2021/10/13 06:58:42;;;;;;;9.23;4.53;;;;;;;;;;5095480;28;20197;-80
2021/10/13 07:01:10;;;;;;;7.18;4.70;;;;;;;;;;5095060;28;20475;-80
2021/10/13 07:03:37;;;;;;;7.78;5.07;;;;;;;;;;5095657;28;20227;-80
2021/10/13 07:06:04;;;;;;;9.25;6.30;;;;;;;;;;5095042;28;20194;-81
2021/10/13 07:08:31;;;;;;;8.57;5.78;;;;;;;;;;5095014;28;20196;-81
2021/10/13 07:10:59;;;;;;;8.80;5.68;;;;;;;;;;5095285;28;20262;-80
2021/10/13 07:13:27;;;;;;;7.82;5.55;;;;;;;;;;5094444;28;20538;-80
2021/10/13 07:15:54;;;;;;;8.20;4.95;;;;;;;;;;5094780;28;20292;-80
2021/10/13 07:18:21;;;;;;;7.38;4.68;;;;;;;;;;5094774;28;20201;-80
2021/10/13 07:20:49;;;;;;;10.77;5.10;;;;;;;;;;5094909;28;20224;-81
2021/10/13 07:23:16;;;;;;;8.25;4.70;;;;;;;;;;5095002;28;20193;-81
2021/10/13 07:25:43;;;;;;;5.67;5.10;;;;;;;;;;5094553;28;20670;-81
2021/10/13 07:28:12;;;;;;;9.77;4.85;;;;;;;;;;5094955;28;20447;-80
2021/10/13 07:30:41;;;;;;;8.45;5.32;;;;;;;;;;5095097;28;20244;-81
2021/10/13 07:33:08;;;;;;;8.02;4.88;;;;;;;;;;5095191;28;20228;-81
2021/10/13 07:35:36;;;;;;;7.50;5.43;;;;;;;;;;5094465;28;20288;-80
2021/10/13 07:38:04;;;;;;;8.10;5.13;;;;;;;;;;5095011;28;20194;-79
2021/10/13 07:40:32;;;;;;;6.67;4.90;;;;;;;;;;5095189;28;20566;-80
2021/10/13 07:42:59;;;;;;;8.40;4.70;;;;;;;;;;5094216;28;20967;-80
2021/10/13 07:45:26;;;;;;;6.93;4.57;;;;;;;;;;5094884;28;20439;-80
2021/10/13 07:47:55;;;;;;;9.67;5.30;;;;;;;;;;5094599;28;20542;-80
2021/10/13 07:50:22;;;;;;;4.53;4.05;;;;;;;;;;5094067;28;20517;-80
2021/10/13 07:52:49;;;;;;;10.90;4.20;;;;;;;;;;5094446;28;20196;-81
2021/10/13 07:55:17;;;;;;;11.03;4.20;;;;;;;;;;5094082;28;20960;-81
2021/10/13 07:57:44;;;;;;;7.63;3.70;;;;;;;;;;5094690;28;20439;-80
2021/10/13 08:00:12;;;;;;;8.82;3.60;;;;;;;;;;5094230;28;20443;-81
2021/10/13 08:02:44;;;;;;;9.43;4.10;;;;;;;;;;5094314;28;20241;-80
2021/10/13 08:05:12;;;;;;;8.10;4.00;;;;;;;;;;5094146;28;20926;-80
2021/10/13 08:07:40;;;;;;;4.87;3.80;;;;;;;;;;5094468;28;20435;-81
2021/10/13 08:10:07;;;;;;;5.73;3.03;;;;;;;;;;5094083;28;20439;-80
2021/10/13 08:12:34;;;;;;;4.60;3.13;;;;;;;;;;5093497;28;20443;-78
2021/10/13 08:15:07;;;;;;;4.47;3.30;;;;;;;;;;5093292;28;20952;-79
2021/10/13 08:17:34;;;;;;;6.13;3.08;;;;;;;;;;5093250;28;20628;-78
2021/10/13 08:20:03;;;;;;;8.03;3.50;;;;;;;;;;5093996;28;20201;-79
2021/10/13 08:22:32;;;;;;;7.43;3.43;;;;;;;;;;5093407;28;20474;-77
2021/10/13 08:24:59;;;;;;;11.03;3.27;;;;;;;;;;5093288;28;20934;-79
2021/10/13 08:27:27;;;;;;;8.43;3.27;;;;;;;;;;5093562;28;20438;-79
2021/10/13 08:29:54;;;;;;;14.00;5.97;;;;;;;;;;5093818;28;20811;-80
2021/10/13 08:32:21;;;;;;;6.93;3.00;;;;;;;;;;5093720;28;20446;-80
2021/10/13 08:34:49;;;;;;;16.13;4.17;;;;;;;;;;5093707;28;20449;-80
2021/10/13 08:37:16;;;;;;;4.53;3.03;;;;;;;;;;5093838;28;20529;-80
2021/10/13 08:39:45;;;;;;;7.67;2.70;;;;;;;;;;5093382;28;20439;-79
2021/10/13 08:42:12;;;;;;;8.20;3.20;;;;;;;;;;5093853;28;20481;-80
2021/10/13 08:44:40;;;;;;;3.70;2.60;;;;;;;;;;5094471;28;20447;-80
2021/10/13 08:47:10;;;;;;;4.77;3.27;;;;;;;;;;5093767;28;20447;-80
2021/10/13 08:49:37;;;;;;;4.87;2.77;;;;;;;;;;5093514;28;20446;-79
2021/10/13 08:52:09;;;;;;;5.20;2.60;;;;;;;;;;5093224;28;20934;-80
2021/10/13 08:54:36;;;;;;;11.60;3.00;;;;;;;;;;5093267;28;20432;-80
2021/10/13 08:57:15;;;;;;;7.00;3.07;;;;;;;;;;5093134;28;20438;-80
2021/10/13 08:59:43;;;;;;;7.57;3.10;;;;;;;;;;5094223;28;20450;-82
2021/10/13 09:02:10;;;;;;;3.27;2.97;;;;;;;;;;5093207;28;20857;-80
2021/10/13 09:04:38;;;;;;;6.80;3.07;;;;;;;;;;5093664;28;20478;-80
2021/10/13 09:07:05;;;;;;;6.87;3.60;;;;;;;;;;5093037;28;20444;-81
2021/10/13 09:09:34;;;;;;;5.03;3.87;;;;;;;;;;5093053;28;20930;-81
2021/10/13 09:12:01;;;;;;;6.70;3.10;;;;;;;;;;5093273;28;20476;-81
2021/10/13 09:14:31;;;;;;;4.77;2.60;;;;;;;;;;5093631;28;20451;-79
2021/10/13 09:17:00;;;;;;;4.67;2.60;;;;;;;;;;5092969;28;20626;-81
2021/10/13 09:19:28;;;;;;;3.23;2.80;;;;;;;;;;5093433;28;20475;-81
2021/10/13 09:21:56;;;;;;;11.53;2.90;;;;;;;;;;5093102;28;20909;-82
2021/10/13 09:24:25;;;;;;;7.13;3.13;;;;;;;;;;5093428;28;20428;-81
2021/10/13 09:26:52;;;;;;;7.43;3.27;;;;;;;;;;5093221;28;20991;-81
2021/10/13 09:29:19;;;;;;;18.83;4.20;;;;;;;;;;5093183;28;20444;-81
2021/10/13 09:31:56;;;;;;;11.30;3.20;;;;;;;;;;5092888;28;20454;-81
2021/10/13 09:34:23;;;;;;;2.43;2.23;;;;;;;;;;5093381;28;20912;-82
2021/10/13 09:36:58;;;;;;;9.43;2.40;;;;;;;;;;5093704;28;20759;-81
2021/10/13 09:39:25;;;;;;;8.57;3.30;;;;;;;;;;5096766;28;20431;-82
2021/10/13 09:42:11;;;;;;;7.00;2.60;;;;;;;;;;5097121;28;20475;-82
2021/10/13 09:44:40;;;;;;;6.53;2.70;;;;;;;;;;5096659;28;20443;-82
2021/10/13 09:47:10;;;;;;;4.07;2.53;;;;;;;;;;5097147;28;20477;-82
2021/10/13 09:49:38;;;;;;;3.63;2.70;;;;;;;;;;5096973;28;20427;-81
2021/10/13 09:52:07;;;;;;;6.63;2.70;;;;;;;;;;5096929;28;20445;-82
2021/10/13 09:54:35;;;;;;;4.90;2.30;;;;;;;;;;5096646;28;20444;-82
2021/10/13 09:57:14;;;;;;;10.77;2.60;;;;;;;;;;5097520;28;20449;-81
2021/10/13 09:59:56;;;;;;;10.70;3.10;;;;;;;;;;5096456;28;20914;-82
2021/10/13 10:02:24;;;;;;;6.10;2.73;;;;;;;;;;5096663;28;20857;-80
2021/10/13 10:04:52;;;;;;;5.03;2.50;;;;;;;;;;5096926;28;20783;-82
2021/10/13 10:07:20;;;;;;;7.43;3.40;;;;;;;;;;5096534;28;20451;-81
2021/10/13 10:10:02;;;;;;;4.50;2.70;;;;;;;;;;5096790;28;20518;-82
2021/10/13 10:12:29;;;;;;;6.10;2.80;;;;;;;;;;5096726;28;20434;-81
2021/10/13 10:14:57;;;;;;;7.40;2.97;;;;;;;;;;5096400;28;20439;-81
2021/10/13 10:17:41;;;;;;;6.13;2.50;;;;;;;;;;5096388;28;20471;-81
2021/10/13 10:20:09;;;;;;;5.37;2.57;;;;;;;;;;5096423;28;20435;-82
2021/10/13 10:22:46;;;;;;;6.13;2.33;;;;;;;;;;5096262;28;20475;-81
2021/10/13 10:25:14;;;;;;;7.53;2.20;;;;;;;;;;5096531;28;20446;-82
2021/10/13 10:27:41;;;;;;;3.37;2.30;;;;;;;;;;5096228;28;20442;-82
2021/10/13 10:30:19;;;;;;;2.30;1.80;;;;;;;;;;5096535;28;20444;-83
2021/10/13 10:33:08;;;;;;;4.53;1.80;;;;;;;;;;5096737;28;20492;-81
2021/10/13 10:35:42;;;;;;;2.70;2.43;;;;;;;;;;5095957;28;20442;-82
2021/10/13 10:38:10;;;;;;;4.43;2.20;;;;;;;;;;5096254;28;20435;-81
2021/10/13 10:40:38;;;;;;;4.63;2.23;;;;;;;;;;5096945;28;20826;-80
2021/10/13 10:43:07;;;;;;;4.90;2.87;;;;;;;;;;5096885;28;20491;-82
2021/10/13 10:45:39;;;;;;;5.47;2.17;;;;;;;;;;5095814;28;20436;-82
2021/10/13 10:48:12;;;;;;;3.13;2.60;;;;;;;;;;5096058;28;20519;-82
2021/10/13 10:50:43;;;;;;;5.00;2.33;;;;;;;;;;5096179;28;20445;-82
2021/10/13 10:53:21;;;;;;;3.27;2.97;;;;;;;;;;5095547;28;20523;-81
2021/10/13 10:55:49;;;;;;;3.70;2.57;;;;;;;;;;5096158;28;20439;-82
2021/10/13 10:58:19;;;;;;;4.07;2.50;;;;;;;;;;5095644;28;20921;-82
2021/10/13 11:00:46;;;;;;;4.23;2.20;;;;;;;;;;5095592;28;20470;-81
2021/10/13 11:03:22;;;;;;;3.33;2.70;;;;;;;;;;5095277;28;20995;-81
2021/10/13 11:05:49;;;;;;;7.70;2.27;;;;;;;;;;5095149;28;20441;-81
2021/10/13 11:08:17;;;;;;;6.33;2.00;;;;;;;;;;5095383;28;20446;-81
2021/10/13 11:10:44;;;;;;;4.10;2.13;;;;;;;;;;5095600;28;20466;-81
2021/10/13 11:13:11;;;;;;;2.73;1.80;;;;;;;;;;5095318;28;20443;-82
2021/10/13 11:15:39;;;;;;;4.23;2.40;;;;;;;;;;5095314;28;20527;-81
2021/10/13 11:18:15;;;;;;;4.30;1.70;;;;;;;;;;5095543;28;20470;-83
2021/10/13 11:20:44;;;;;;;6.20;2.30;;;;;;;;;;5094987;28;20482;-82
2021/10/13 11:23:12;;;;;;;7.07;2.30;;;;;;;;;;5095012;28;20566;-82
2021/10/13 11:25:39;;;;;;;4.90;2.47;;;;;;;;;;5094698;28;20915;-81
2021/10/13 11:28:07;;;;;;;4.40;2.27;;;;;;;;;;5095066;28;20435;-81
2021/10/13 11:30:39;;;;;;;6.80;2.30;;;;;;;;;;5094951;28;20440;-81
2021/10/13 11:33:06;;;;;;;5.10;2.57;;;;;;;;;;5095052;28;20440;-80
2021/10/13 11:35:34;;;;;;;4.30;2.00;;;;;;;;;;5094817;28;20528;-81
2021/10/13 11:38:03;;;;;;;3.07;1.70;;;;;;;;;;5095386;28;20440;-82
2021/10/13 11:40:30;;;;;;;3.33;1.30;;;;;;;;;;5094461;28;20530;-80
2021/10/13 11:42:58;;;;;;;3.17;1.70;;;;;;;;;;5094229;28;20479;-81
2021/10/13 11:45:25;;;;;;;7.13;2.63;;;;;;;;;;5094678;28;20449;-81
2021/10/13 11:47:52;;;;;;;2.20;1.50;;;;;;;;;;5094696;28;20480;-82
2021/10/13 11:50:25;;;;;;;3.07;1.57;;;;;;;;;;5094495;28;20944;-80
2021/10/13 11:53:00;;;;;;;4.10;1.73;;;;;;;;;;5094018;28;20428;-82
2021/10/13 11:55:39;;;;;;;6.00;2.10;;;;;;;;;;5094612;28;20431;-80
2021/10/13 11:58:08;;;;;;;1.93;1.73;;;;;;;;;;5093903;28;20422;-73
2021/10/13 12:00:45;;;;;;;1.77;1.57;;;;;;;;;;5093313;28;20447;-81
2021/10/13 12:03:13;;;;;;;8.80;1.77;;;;;;;;;;5095212;28;20502;-89
2021/10/13 12:05:47;;;;;;;4.10;1.77;;;;;;;;;;5098840;28;20487;-88
2021/10/13 12:08:15;;;;;;;6.23;1.97;;;;;;;;;;5096476;28;20425;-88
2021/10/13 12:10:45;;;;;;;4.83;1.80;;;;;;;;;;5094380;28;20451;-88
2021/10/13 12:13:14;;;;;;;11.40;2.10;;;;;;;;;;5094315;28;20926;-85
2021/10/13 12:15:42;;;;;;;6.23;1.90;;;;;;;;;;5094063;28;20531;-87
2021/10/13 12:18:09;;;;;;;3.10;2.07;;;;;;;;;;5094198;28;20448;-91
2021/10/13 12:20:37;;;;;;;3.30;1.97;;;;;;;;;;5094970;28;20437;-87
2021/10/13 12:23:10;;;;;;;4.23;1.80;;;;;;;;;;5095578;28;20542;-89
2021/10/13 12:25:37;;;;;;;4.00;1.77;;;;;;;;;;5096381;28;20915;-87
2021/10/13 12:28:13;;;;;;;6.53;2.03;;;;;;;;;;5095912;28;20468;-88
2021/10/13 12:30:40;;;;;;;2.37;1.40;;;;;;;;;;5094864;28;20459;-87
2021/10/13 12:33:08;;;;;;;1.60;1.50;;;;;;;;;;5094139;28;20441;-87
2021/10/13 12:35:36;;;;;;;3.73;1.40;;;;;;;;;;5094439;28;20888;-85
2021/10/13 12:38:03;;;;;;;4.47;1.40;;;;;;;;;;5093881;28;20485;-88
2021/10/13 12:40:31;;;;;;;4.27;2.23;;;;;;;;;;5093598;28;20528;-85
2021/10/13 12:43:13;;;;;;;5.03;1.87;;;;;;;;;;5093929;28;20492;-88
2021/10/13 12:45:41;;;;;;;4.87;2.00;;;;;;;;;;5099034;28;20883;-86
2021/10/13 12:48:15;;;;;;;4.93;2.37;;;;;;;;;;5102958;28;20570;-87
2021/10/13 12:50:57;;;;;;;3.63;1.90;;;;;;;;;;5095035;28;20440;-87
2021/10/13 12:53:24;;;;;;;4.20;1.53;;;;;;;;;;5094277;28;20521;-87
2021/10/13 12:55:52;;;;;;;7.50;2.20;;;;;;;;;;5095126;28;20524;-87
2021/10/13 12:58:25;;;;;;;1.60;1.50;;;;;;;;;;5095462;28;20871;-88
2021/10/13 13:00:54;;;;;;;1.97;1.73;;;;;;;;;;5094196;28;20525;-88
2021/10/13 13:03:23;;;;;;;4.27;1.50;;;;;;;;;;5093988;28;20582;-86
2021/10/13 13:05:50;;;;;;;3.23;1.83;;;;;;;;;;5093745;28;20445;-87
2021/10/13 13:08:17;;;;;;;8.40;1.90;;;;;;;;;;5094437;28;20440;-86
2021/10/13 13:10:44;;;;;;;3.63;1.53;;;;;;;;;;5094643;28;20432;-83
2021/10/13 13:13:12;;;;;;;2.40;1.40;;;;;;;;;;5096819;28;20501;-85
2021/10/13 13:15:39;;;;;;;3.07;1.30;;;;;;;;;;5096818;28;20450;-86
2021/10/13 13:18:09;;;;;;;5.67;1.60;;;;;;;;;;5097093;28;20452;-87
2021/10/13 13:20:36;;;;;;;2.53;1.60;;;;;;;;;;5097678;28;20581;-80
2021/10/13 13:23:03;;;;;;;3.77;1.60;;;;;;;;;;5097457;28;20507;-83
2021/10/13 13:25:31;;;;;;;5.27;1.90;;;;;;;;;;5097496;28;20880;-75
2021/10/13 13:27:58;;;;;;;5.10;1.40;;;;;;;;;;5097210;28;20446;-74
2021/10/13 13:30:25;;;;;;;3.50;1.60;;;;;;;;;;5097160;28;20472;-76
2021/10/13 13:32:54;;;;;;;8.20;1.83;;;;;;;;;;5096940;28;20479;-78
2021/10/13 13:35:22;;;;;;;2.60;1.60;;;;;;;;;;5096892;28;20448;-76
2021/10/13 13:37:50;;;;;;;8.53;2.00;;;;;;;;;;5097167;28;20447;-77
2021/10/13 13:40:17;;;;;;;2.90;1.90;;;;;;;;;;5097236;28;20439;-77
2021/10/13 13:42:46;;;;;;;4.87;2.20;;;;;;;;;;5096443;28;20468;-77
2021/10/13 13:45:13;;;;;;;2.60;1.50;;;;;;;;;;5096968;28;20443;-77
2021/10/13 13:47:40;;;;;;;4.83;1.70;;;;;;;;;;5096847;28;20880;-77
2021/10/13 13:50:08;;;;;;;6.17;1.90;;;;;;;;;;5096595;28;20451;-76
2021/10/13 13:52:37;;;;;;;4.23;1.53;;;;;;;;;;5097318;28;20514;-78
2021/10/13 13:55:04;;;;;;;2.30;1.80;;;;;;;;;;5096445;28;20528;-77
2021/10/13 13:57:32;;;;;;;3.80;1.77;;;;;;;;;;5096652;28;20532;-78
2021/10/13 13:59:59;;;;;;;5.57;1.60;;;;;;;;;;5096965;28;20440;-76
2021/10/13 14:02:26;;;;;;;2.27;1.73;;;;;;;;;;5096315;28;20440;-76
2021/10/13 14:04:55;;;;;;;4.13;1.67;;;;;;;;;;5096342;28;20433;-76
2021/10/13 14:07:22;;;;;;;5.13;1.90;;;;;;;;;;5096566;28;20436;-76
2021/10/13 14:09:51;;;;;;;3.80;1.80;;;;;;;;;;5096385;28;20472;-77
2021/10/13 14:12:18;;;;;;;1.93;1.33;;;;;;;;;;5096130;28;20528;-77
2021/10/13 14:14:45;;;;;;;5.20;1.60;;;;;;;;;;5096608;28;20452;-77
2021/10/13 14:17:12;;;;;;;3.57;1.67;;;;;;;;;;5096067;28;20443;-76
2021/10/13 14:19:40;;;;;;;10.50;2.40;;;;;;;;;;5096183;28;20874;-76
2021/10/13 14:22:08;;;;;;;4.90;1.50;;;;;;;;;;5095886;28;20946;-76
2021/10/13 14:24:35;;;;;;;3.97;2.20;;;;;;;;;;5095550;28;20482;-76
2021/10/13 14:27:04;;;;;;;6.90;1.90;;;;;;;;;;5096270;28;20865;-76
2021/10/13 14:29:31;;;;;;;4.97;1.73;;;;;;;;;;5095989;28;20443;-76
2021/10/13 14:31:58;;;;;;;7.37;2.10;;;;;;;;;;5095764;28;20476;-76
2021/10/13 14:34:25;;;;;;;2.10;1.70;;;;;;;;;;5096085;28;20529;-76
2021/10/13 14:36:53;;;;;;;8.63;2.80;;;;;;;;;;5095020;28;20440;-76
2021/10/13 14:39:20;;;;;;;5.00;1.83;;;;;;;;;;5095704;28;20448;-76
2021/10/13 14:41:48;;;;;;;2.33;1.43;;;;;;;;;;5095868;28;20443;-76
2021/10/13 14:44:18;;;;;;;2.30;1.40;;;;;;;;;;5095828;28;20537;-76
2021/10/13 14:46:45;;;;;;;1.80;1.60;;;;;;;;;;5095527;28;20432;-77
2021/10/13 14:49:12;;;;;;;3.87;1.93;;;;;;;;;;5095252;28;20500;-78